Time;durP1;ratioP1;P1;durP2;ratioP2;P2;SDS_P1;SDS_P2;PMS_P1;PMS_P2;Temp;Humidity;BMP_temperature;BMP_pressure;BME280_temperature;BME280_humidity;BME280_pressure;Samples;Min_cycle;Max_cycle;Signal;HPM_P1;HPM_P2
2021/12/17 00:00:19;;;;;;;114.53;57.38;;;;;;;6.30;100.00;103899.06;5011888;28;20642;-86
2021/12/17 00:08:13;;;;;;;105.35;57.33;;;;;;;6.36;100.00;103909.13;5010313;28;20057;-86
2021/12/17 00:11:04;;;;;;;100.72;55.25;;;;;;;6.24;100.00;103885.53;5011908;28;20091;-87
2021/12/17 00:17:01;;;;;;;104.10;56.40;;;;;;;6.44;100.00;103911.00;4949395;28;20054;-86
2021/12/17 00:53:27;;;;;;;104.10;53.63;;;;;;;6.46;100.00;103900.22;5011291;28;20060;-87
2021/12/17 00:55:29;;;;;;;107.57;54.05;;;;;;;6.40;100.00;103880.34;4988637;28;20048;-86
2021/12/17 00:57:57;;;;;;;112.88;54.65;;;;;;;6.51;100.00;103901.41;5010393;28;20045;-87
2021/12/17 01:00:24;;;;;;;116.20;54.15;;;;;;;6.45;100.00;103891.38;5010781;28;20052;-86
2021/12/17 01:02:53;;;;;;;121.30;56.03;;;;;;;6.51;100.00;103893.44;5011065;28;20101;-87
2021/12/17 01:05:30;;;;;;;119.38;56.65;;;;;;;6.48;100.00;103884.91;5026829;28;20030;-86
2021/12/17 01:07:58;;;;;;;115.40;55.03;;;;;;;6.52;100.00;103888.91;5010729;28;20119;-87
2021/12/17 01:10:54;;;;;;;113.13;54.08;;;;;;;6.42;100.00;103867.69;5011105;28;20037;-87
2021/12/17 01:13:27;;;;;;;110.72;52.35;;;;;;;6.41;100.00;103862.53;5006358;28;20057;-87
2021/12/17 01:15:53;;;;;;;109.40;52.80;;;;;;;6.48;100.00;103867.09;5011059;28;20032;-86
2021/12/17 01:18:21;;;;;;;129.57;55.47;;;;;;;6.44;100.00;103864.91;5010490;28;20025;-87
2021/12/17 01:24:32;;;;;;;148.05;61.05;;;;;;;6.59;100.00;103878.47;5026530;28;20113;-86
2021/12/17 01:42:50;;;;;;;154.18;56.65;;;;;;;6.62;100.00;103883.50;5030249;28;20495;-87
2021/12/17 01:45:16;;;;;;;146.38;54.72;;;;;;;6.59;100.00;103879.31;5024802;28;20041;-87
2021/12/17 01:47:41;;;;;;;144.95;51.88;;;;;;;6.56;100.00;103876.16;5029652;28;20056;-87
2021/12/17 02:01:08;;;;;;;170.10;52.00;;;;;;;6.68;100.00;103890.88;5010606;28;20040;-87
2021/12/17 02:03:46;;;;;;;165.65;52.30;;;;;;;6.48;100.00;103859.09;5012867;28;20021;-87
2021/12/17 02:06:17;;;;;;;168.38;54.10;;;;;;;6.50;100.00;103857.13;5029314;28;20025;-87
2021/12/17 02:08:47;;;;;;;156.05;50.72;;;;;;;6.49;100.00;103849.25;5026776;28;20021;-88
2021/12/17 02:11:49;;;;;;;183.55;55.13;;;;;;;6.64;100.00;103879.69;5029909;28;20045;-88
2021/12/17 02:19:45;;;;;;;168.65;52.38;;;;;;;6.62;100.00;103878.16;4996792;28;20099;-89
2021/12/17 02:22:58;;;;;;;190.80;54.50;;;;;;;6.70;100.00;103880.91;4992402;28;20022;-87
2021/12/17 02:33:39;;;;;;;195.52;56.58;;;;;;;6.66;100.00;103901.66;5019087;28;20026;-87
2021/12/17 02:36:10;;;;;;;190.43;53.90;;;;;;;6.61;100.00;103889.81;5028792;28;20037;-88
2021/12/17 02:38:45;;;;;;;193.93;55.53;;;;;;;6.48;100.00;103869.75;5028532;28;20029;-87
2021/12/17 02:46:51;;;;;;;221.57;56.10;;;;;;;6.52;100.00;103875.59;5013124;28;20036;-87
2021/12/17 02:49:17;;;;;;;225.63;57.63;;;;;;;6.52;100.00;103878.25;4996991;28;20029;-87
2021/12/17 02:51:43;;;;;;;228.18;58.63;;;;;;;6.51;100.00;103872.13;4995596;28;20022;-87
2021/12/17 02:54:09;;;;;;;216.82;55.95;;;;;;;6.63;100.00;103891.34;5036654;22;20024;-87
2021/12/17 02:56:39;;;;;;;220.55;54.40;;;;;;;6.49;100.00;103875.91;5040485;28;20033;-87
2021/12/17 02:59:13;;;;;;;213.45;52.90;;;;;;;6.58;100.00;103882.13;5032890;28;20033;-87
2021/12/17 03:01:41;;;;;;;200.20;50.88;;;;;;;6.62;100.00;103888.81;5031675;28;20025;-87
2021/12/17 03:04:08;;;;;;;211.27;51.70;;;;;;;6.47;100.00;103868.06;5034820;28;20144;-87
2021/12/17 03:06:40;;;;;;;203.80;52.03;;;;;;;6.46;100.00;103866.41;5031503;28;20124;-87
2021/12/17 03:09:23;;;;;;;203.40;52.08;;;;;;;6.46;100.00;103863.75;5030738;28;20025;-87
2021/12/17 03:11:52;;;;;;;195.63;51.30;;;;;;;6.53;100.00;103879.94;5031994;28;20030;-87
2021/12/17 03:14:28;;;;;;;199.88;51.35;;;;;;;6.63;100.00;103885.16;5032592;28;20033;-87
2021/12/17 03:17:07;;;;;;;227.95;54.92;;;;;;;6.47;100.00;103867.25;5032625;28;20025;-87
2021/12/17 03:25:04;;;;;;;226.10;54.65;;;;;;;6.46;100.00;103887.72;5031740;28;20110;-88
2021/12/17 03:27:32;;;;;;;231.68;53.42;;;;;;;6.49;100.00;103884.75;5032031;28;20036;-88
2021/12/17 03:29:58;;;;;;;233.73;53.60;;;;;;;6.46;100.00;103885.06;5031131;28;20028;-88
2021/12/17 03:32:29;;;;;;;227.73;53.03;;;;;;;6.45;100.00;103880.72;5032927;28;20025;-88
2021/12/17 03:34:54;;;;;;;;;;;;;;;6.67;100.00;103907.84;5031243;28;20443;-88
2021/12/17 03:37:20;;;;;;;247.80;55.40;;;;;;;6.45;100.00;103875.38;5032513;28;19925;-88
2021/12/17 03:39:45;;;;;;;257.33;59.42;;;;;;;6.63;100.00;103898.50;5032021;28;20144;-88
2021/12/17 03:42:10;;;;;;;249.90;55.42;;;;;;;6.58;100.00;103893.63;5032380;28;20412;-87
2021/12/17 03:44:36;;;;;;;233.40;56.78;;;;;;;6.50;100.00;103874.91;5031449;28;20029;-88
2021/12/17 03:47:04;;;;;;;238.98;55.00;;;;;;;6.46;100.00;103881.56;5032360;28;20384;-88
2021/12/17 03:49:36;;;;;;;246.65;54.55;;;;;;;6.45;100.00;103883.38;5031109;28;20026;-88
2021/12/17 03:52:16;;;;;;;;;;;;;;;6.66;100.00;103906.19;5027524;28;20484;-87
2021/12/17 03:54:41;;;;;;;248.05;58.17;;;;;;;6.51;100.00;103887.25;5029733;28;20356;-88
2021/12/17 03:57:10;;;;;;;262.33;60.45;;;;;;;6.59;100.00;103905.13;5032019;28;20024;-86
2021/12/17 03:59:44;;;;;;;269.13;63.35;;;;;;;6.43;100.00;103874.69;5014732;28;20049;-87
2021/12/17 04:02:09;;;;;;;321.55;63.88;;;;;;;6.55;100.00;103899.28;5032237;28;20036;-87
2021/12/17 04:04:35;;;;;;;263.40;60.33;;;;;;;6.55;100.00;103893.13;5031687;28;20033;-87
2021/12/17 04:07:06;;;;;;;285.75;61.90;;;;;;;6.55;100.00;103893.13;5031436;28;20052;-87
2021/12/17 04:09:32;;;;;;;286.65;61.42;;;;;;;6.50;100.00;103880.25;5031429;28;20029;-87
2021/12/17 04:12:00;;;;;;;334.75;66.65;;;;;;;6.60;100.00;103896.13;5031628;28;20025;-87
2021/12/17 04:14:34;;;;;;;301.20;64.20;;;;;;;6.47;100.00;103878.75;5030277;28;20128;-87
2021/12/17 04:17:05;;;;;;;277.70;63.00;;;;;;;6.49;100.00;103883.91;5031945;28;20028;-87
2021/12/17 04:19:36;;;;;;;319.90;67.10;;;;;;;6.55;100.00;103888.63;5030806;28;20036;-87
2021/12/17 04:22:04;;;;;;;362.48;70.63;;;;;;;6.55;100.00;103887.78;5031483;28;20029;-87
2021/12/17 04:24:29;;;;;;;308.02;64.18;;;;;;;6.56;100.00;103886.81;5031139;28;20451;-87
2021/12/17 04:26:55;;;;;;;286.58;65.38;;;;;;;6.54;100.00;103884.28;5030811;28;20049;-87
2021/12/17 04:29:21;;;;;;;303.15;65.53;;;;;;;6.47;100.00;103876.06;5031454;28;20031;-87
2021/12/17 04:31:52;;;;;;;277.50;65.78;;;;;;;6.57;100.00;103891.13;5029631;28;20116;-87
2021/12/17 04:34:19;;;;;;;297.55;66.30;;;;;;;6.58;100.00;103893.63;5030540;28;20033;-87
2021/12/17 04:36:47;;;;;;;309.40;65.97;;;;;;;6.51;100.00;103877.44;5031130;28;20031;-86
2021/12/17 04:39:21;;;;;;;289.85;61.58;;;;;;;6.43;100.00;103864.03;5029377;28;20393;-87
2021/12/17 04:44:48;;;;;;;343.30;69.28;;;;;;;6.41;100.00;103865.19;5030542;28;20029;-86
2021/12/17 04:57:47;;;;;;;274.02;57.85;;;;;;;6.56;100.00;103884.13;5030421;28;20675;-87
2021/12/17 05:00:20;;;;;;;254.30;56.17;;;;;;;6.50;100.00;103877.56;5030911;28;20052;-86
2021/12/17 05:02:55;;;;;;;252.18;55.72;;;;;;;6.56;100.00;103884.97;5029623;28;20049;-86
2021/12/17 05:05:30;;;;;;;273.80;57.35;;;;;;;6.55;100.00;103877.13;5030760;28;20124;-87
2021/12/17 05:08:06;;;;;;;221.88;51.55;;;;;;;6.59;100.00;103889.97;5028669;28;20400;-87
2021/12/17 05:18:39;;;;;;;265.73;53.05;;;;;;;6.58;100.00;103893.63;5029929;28;20092;-86
2021/12/17 05:21:07;;;;;;;244.80;51.70;;;;;;;6.49;100.00;103879.41;5016913;28;20029;-87
2021/12/17 05:23:35;;;;;;;230.77;50.10;;;;;;;6.53;100.00;103889.78;5030112;28;20438;-87
2021/12/17 05:26:03;;;;;;;219.63;48.08;;;;;;;6.55;100.00;103896.59;5029364;28;20033;-86
2021/12/17 05:28:36;;;;;;;276.10;52.15;;;;;;;6.57;100.00;103896.47;5030301;28;20036;-87
2021/12/17 05:31:18;;;;;;;224.80;49.72;;;;;;;6.46;100.00;103882.38;5030144;28;20022;-86
2021/12/17 05:34:19;;;;;;;236.68;48.40;;;;;;;6.40;100.00;103875.00;5028775;28;20033;-87
2021/12/17 14:27:06;;;;;;;22.48;10.25;;;;;;;6.62;100.00;103936.78;4896866;23;20559;-84
2021/12/17 14:29:40;;;;;;;21.95;10.30;;;;;;;6.72;100.00;103961.53;4876282;29;20041;-84
2021/12/17 14:33:03;;;;;;;21.50;10.18;;;;;;;6.77;100.00;103967.22;4868275;29;20037;-86
2021/12/17 14:36:02;;;;;;;22.40;10.52;;;;;;;6.78;100.00;103966.22;4856099;29;20051;-85
2021/12/17 14:39:27;;;;;;;21.67;10.85;;;;;;;6.79;100.00;103961.75;4858155;29;20113;-86
2021/12/17 14:42:51;;;;;;;;;;;;;;;;;;;;;
2021/12/17 15:22:09;;;;;;;18.25;8.27;;;;;;;6.36;100.00;103941.06;5565727;23;20428;-83
2021/12/17 16:41:38;;;;;;;33.25;20.85;;;;;;;6.56;100.00;103972.88;5619334;23;20056;-85
2021/12/17 16:55:53;;;;;;;30.45;18.85;;;;;;;6.43;100.00;103938.63;5792015;23;20388;-86
2021/12/17 16:58:21;;;;;;;29.73;18.17;;;;;;;6.56;100.00;103958.75;4932784;29;20118;-86
2021/12/17 17:00:49;;;;;;;30.67;19.00;;;;;;;6.42;100.00;103950.28;4933048;29;20036;-86
2021/12/17 17:03:15;;;;;;;30.52;18.33;;;;;;;6.46;100.00;103946.31;4933415;29;20065;-86
2021/12/17 17:06:10;;;;;;;30.92;18.80;;;;;;;6.61;100.00;103969.75;4923837;23;20490;-85
2021/12/17 17:08:48;;;;;;;31.30;19.15;;;;;;;6.47;100.00;103936.53;4912442;29;20040;-86
2021/12/17 17:12:01;;;;;;;30.42;18.50;;;;;;;6.44;100.00;103942.97;4913490;29;20039;-86
2021/12/17 17:14:27;;;;;;;32.45;18.80;;;;;;;6.63;100.00;103975.78;4892654;23;20055;-85
2021/12/17 17:16:56;;;;;;;30.73;18.52;;;;;;;6.51;100.00;103961.84;4933182;29;20027;-86
2021/12/17 17:19:39;;;;;;;32.05;19.23;;;;;;;6.43;100.00;103941.31;4931834;29;20027;-85
2021/12/17 17:22:08;;;;;;;30.88;18.55;;;;;;;6.53;100.00;103945.72;5041871;23;20090;-85
2021/12/17 17:27:20;;;;;;;31.40;19.25;;;;;;;6.55;100.00;103967.72;4912186;29;20047;-86
2021/12/17 17:35:21;;;;;;;30.98;18.90;;;;;;;6.58;100.00;103972.72;4953019;23;20057;-85
2021/12/17 17:37:56;;;;;;;29.42;17.90;;;;;;;6.53;100.00;103946.53;4915267;29;20039;-85
2021/12/17 17:40:35;;;;;;;31.23;18.63;;;;;;;6.51;100.00;103952.03;4919142;29;20483;-85
2021/12/17 17:43:05;;;;;;;29.33;18.45;;;;;;;6.66;100.00;103975.47;4916025;29;20487;-85
2021/12/17 17:45:34;;;;;;;29.40;18.17;;;;;;;6.60;100.00;103954.75;4915653;29;20075;-84
2021/12/17 17:48:00;;;;;;;30.38;18.63;;;;;;;6.65;100.00;103961.31;4914804;29;20379;-85
2021/12/17 17:50:32;;;;;;;31.25;17.98;;;;;;;6.59;100.00;103961.94;4915706;29;20043;-84
2021/12/17 17:53:00;;;;;;;31.08;18.25;;;;;;;6.57;100.00;103961.25;4931979;29;20019;-86
2021/12/17 17:55:26;;;;;;;30.35;17.95;;;;;;;6.65;100.00;103964.00;4933181;29;20071;-84
2021/12/17 17:58:00;;;;;;;31.25;17.88;;;;;;;6.66;100.00;103965.63;4919638;29;20027;-84
2021/12/17 18:00:26;;;;;;;29.65;18.48;;;;;;;6.61;100.00;103957.28;4934691;29;20402;-84
2021/12/17 18:02:52;;;;;;;33.60;18.42;;;;;;;6.54;100.00;103942.91;4932234;29;20031;-84
2021/12/17 18:05:20;;;;;;;29.98;18.02;;;;;;;6.63;100.00;103962.44;4932871;29;20036;-84
2021/12/17 18:07:45;;;;;;;29.90;18.52;;;;;;;6.72;100.00;103964.19;4931891;29;20391;-84
2021/12/17 18:10:11;;;;;;;31.38;19.20;;;;;;;6.72;100.00;103963.34;4934394;29;20020;-84
2021/12/17 18:12:49;;;;;;;28.42;17.20;;;;;;;6.73;100.00;103962.38;4935724;29;20035;-84
2021/12/17 18:15:15;;;;;;;30.02;19.08;;;;;;;6.66;100.00;103956.81;4925606;29;20042;-83
2021/12/17 18:17:40;;;;;;;30.33;18.45;;;;;;;6.72;100.00;103972.19;4934408;29;20028;-84
2021/12/17 18:20:06;;;;;;;30.17;18.88;;;;;;;6.70;100.00;103974.19;4935237;29;20055;-83
2021/12/17 18:22:32;;;;;;;31.98;19.02;;;;;;;6.61;100.00;103959.09;4934717;29;20040;-83
2021/12/17 18:24:57;;;;;;;32.65;19.63;;;;;;;6.67;100.00;103969.16;4935556;29;20503;-84
2021/12/17 18:27:24;;;;;;;31.45;19.27;;;;;;;6.72;100.00;103974.88;4933666;29;20058;-83
2021/12/17 18:29:49;;;;;;;30.45;18.77;;;;;;;6.71;100.00;103969.66;4906997;29;20120;-83
2021/12/17 18:32:15;;;;;;;31.55;19.95;;;;;;;6.74;100.00;103975.56;4935662;29;20106;-84
2021/12/17 18:34:40;;;;;;;32.20;19.55;;;;;;;6.68;100.00;103968.16;4933165;29;20087;-83
2021/12/17 18:37:06;;;;;;;34.42;20.05;;;;;;;6.60;100.00;103960.09;4935589;29;20023;-84
2021/12/17 18:39:34;;;;;;;33.20;20.98;;;;;;;6.72;100.00;103969.53;4934304;29;20035;-85
2021/12/17 18:44:47;;;;;;;34.47;21.50;;;;;;;6.65;100.00;103966.66;4933824;29;20513;-83
2021/12/17 18:47:12;;;;;;;34.88;21.15;;;;;;;6.69;100.00;103964.50;4935109;29;20039;-84
2021/12/17 18:49:37;;;;;;;33.60;21.73;;;;;;;6.68;100.00;103962.84;4915460;29;20091;-84
2021/12/17 18:52:03;;;;;;;35.50;21.45;;;;;;;6.74;100.00;103980.88;4931121;29;20032;-83
2021/12/17 18:54:28;;;;;;;32.33;21.17;;;;;;;6.64;100.00;103961.47;4928479;29;20042;-83
2021/12/17 18:56:53;;;;;;;30.83;19.50;;;;;;;6.74;100.00;103985.34;4931407;29;20063;-84
2021/12/17 18:59:19;;;;;;;32.88;20.75;;;;;;;6.65;100.00;103963.13;4933075;29;20028;-84
2021/12/17 19:01:50;;;;;;;32.75;20.85;;;;;;;6.75;100.00;103989.69;4915714;29;20135;-85
2021/12/17 19:04:16;;;;;;;34.47;20.90;;;;;;;6.67;100.00;103974.47;4935169;29;20023;-84
2021/12/17 19:06:57;;;;;;;32.35;20.70;;;;;;;6.66;100.00;103980.81;4935274;29;20372;-84
2021/12/17 19:09:35;;;;;;;33.83;21.13;;;;;;;6.69;100.00;103980.50;4925023;29;20035;-84
2021/12/17 19:12:00;;;;;;;35.70;20.45;;;;;;;6.61;100.00;103965.28;4932789;29;20060;-84
2021/12/17 19:14:30;;;;;;;34.55;21.73;;;;;;;6.61;100.00;103956.44;4932792;29;20035;-84
2021/12/17 19:16:56;;;;;;;35.00;20.55;;;;;;;6.67;100.00;103969.97;4932717;29;20364;-84
2021/12/17 19:19:26;;;;;;;32.33;21.17;;;;;;;6.61;100.00;103957.28;4931333;29;20030;-84
2021/12/17 19:24:32;;;;;;;36.60;21.88;;;;;;;6.53;100.00;103948.38;4934372;29;20398;-85
2021/12/17 19:26:57;;;;;;;33.28;20.08;;;;;;;6.56;100.00;103940.09;4931931;29;20499;-84
2021/12/17 19:29:28;;;;;;;35.55;20.85;;;;;;;6.64;100.00;103956.97;4926663;29;20015;-84
2021/12/17 19:31:56;;;;;;;34.30;21.33;;;;;;;6.74;100.00;103977.38;4928812;29;20023;-85
2021/12/17 19:34:25;;;;;;;33.08;20.73;;;;;;;6.64;100.00;103966.78;4926234;29;20032;-84
2021/12/17 19:36:50;;;;;;;36.20;21.25;;;;;;;6.65;100.00;103968.47;4933780;29;20031;-84
2021/12/17 19:39:17;;;;;;;35.55;20.98;;;;;;;6.58;100.00;103954.06;4933248;29;20042;-84
2021/12/17 19:41:51;;;;;;;36.08;22.30;;;;;;;6.55;100.00;103955.22;4928514;29;20031;-84
2021/12/17 19:44:17;;;;;;;37.47;21.77;;;;;;;6.58;100.00;103954.91;4927172;29;20059;-84
2021/12/17 19:52:08;;;;;;;37.05;22.30;;;;;;;6.57;100.00;103957.75;4925751;29;20042;-84
2021/12/17 19:54:39;;;;;;;38.13;22.80;;;;;;;6.60;100.00;103965.41;4966271;23;20048;-84
2021/12/17 19:57:05;;;;;;;37.80;22.30;;;;;;;6.59;100.00;103961.06;4926463;29;20028;-83
2021/12/17 19:59:46;;;;;;;36.88;22.83;;;;;;;6.59;100.00;103958.41;4926945;29;20212;-84
2021/12/17 20:04:53;;;;;;;40.63;24.35;;;;;;;6.70;100.00;103986.66;4937333;23;20060;-85
2021/12/17 20:07:19;;;;;;;36.97;22.45;;;;;;;6.68;100.00;103970.81;4916369;29;20067;-84
2021/12/17 20:09:45;;;;;;;37.75;23.00;;;;;;;6.77;100.00;103982.38;4932227;29;20483;-84
2021/12/17 20:12:17;;;;;;;38.00;22.80;;;;;;;6.68;100.00;103976.16;4933533;29;20024;-85
2021/12/17 20:14:42;;;;;;;;;;;;;;;6.82;100.00;103983.59;4933423;29;20108;-85
2021/12/17 20:17:29;;;;;;;39.72;24.30;;;;;;;6.77;100.00;103975.22;4934621;29;20401;-85
2021/12/17 20:19:58;;;;;;;39.03;23.88;;;;;;;6.62;100.00;103955.44;4917889;29;20502;-85
2021/12/17 20:22:32;;;;;;;41.15;24.38;;;;;;;6.73;100.00;103979.19;4933359;29;20024;-85
2021/12/17 20:25:22;;;;;;;41.28;26.35;;;;;;;6.72;100.00;103972.19;4930786;29;20106;-85
2021/12/17 20:27:58;;;;;;;44.45;25.75;;;;;;;6.59;100.00;103969.06;4920338;29;20032;-85
2021/12/17 20:30:27;;;;;;;46.30;26.05;;;;;;;6.69;100.00;103969.84;4933013;29;20106;-84
2021/12/17 20:32:55;;;;;;;45.90;27.73;;;;;;;6.60;100.00;103949.44;4932046;29;20119;-85
2021/12/17 20:35:21;;;;;;;46.08;26.17;;;;;;;6.73;100.00;103975.69;4932208;29;20491;-85
2021/12/17 20:37:52;;;;;;;48.00;26.77;;;;;;;6.80;100.00;103990.91;4933053;29;20063;-85
2021/12/17 20:40:20;;;;;;;45.42;27.30;;;;;;;6.75;100.00;103973.72;4932771;29;20507;-85
2021/12/17 20:43:04;;;;;;;46.85;27.75;;;;;;;6.75;100.00;103968.38;4915351;29;20031;-85
2021/12/17 20:45:43;;;;;;;47.28;29.08;;;;;;;6.65;100.00;103952.47;4930473;29;20432;-85
2021/12/17 20:48:20;;;;;;;47.97;28.58;;;;;;;6.84;100.00;103982.59;4916908;29;20034;-86
2021/12/17 20:50:46;;;;;;;48.58;28.58;;;;;;;6.68;100.00;103962.84;4933383;29;20043;-84
2021/12/17 20:53:14;;;;;;;46.00;27.55;;;;;;;6.69;100.00;103950.31;4932300;29;20020;-85
2021/12/17 20:55:41;;;;;;;49.35;28.58;;;;;;;6.81;100.00;103976.59;4925124;29;20030;-85
2021/12/17 20:58:22;;;;;;;;;;;;;;;;;;;;;
2021/12/17 21:00:55;;;;;;;46.95;28.05;;;;;;;6.67;100.00;103956.66;4931208;29;20699;-86
2021/12/17 21:03:21;;;;;;;47.08;28.58;;;;;;;6.79;100.00;103972.41;4929029;29;20039;-85
2021/12/17 21:05:48;;;;;;;46.30;27.95;;;;;;;6.69;100.00;103955.66;4932025;29;20474;-85
2021/12/17 21:08:23;;;;;;;49.15;29.45;;;;;;;6.75;100.00;103971.03;4927204;29;20122;-86
2021/12/17 21:10:58;;;;;;;47.97;28.35;;;;;;;6.81;100.00;103979.25;4932385;29;20035;-86
2021/12/17 21:15:54;;;;;;;44.97;26.13;;;;;;;6.76;100.00;103959.38;4911996;29;20052;-86
2021/12/17 21:30:54;;;;;;;;;;;;;;;;;;;;;
2021/12/17 21:37:38;;;;;;;49.10;28.10;;;;;;;6.89;100.00;103985.66;4931978;29;20087;-93
2021/12/17 21:44:03;;;;;;;49.92;27.95;;;;;;;6.89;100.00;103969.66;4928501;29;20055;-93
2021/12/17 21:49:51;;;;;;;49.75;29.42;;;;;;;6.87;100.00;103972.47;4930409;29;20410;-93
2021/12/17 22:01:20;;;;;;;50.65;27.77;;;;;;;6.87;100.00;103966.31;5154285;23;20079;-88
2021/12/17 22:04:00;;;;;;;48.75;27.30;;;;;;;6.70;100.00;103944.84;4908030;29;20028;-87
2021/12/17 22:09:12;;;;;;;47.55;27.25;;;;;;;6.68;100.00;103941.50;4938844;23;20117;-88
2021/12/17 22:11:37;;;;;;;49.42;27.52;;;;;;;6.72;100.00;103939.38;4929308;29;20031;-87
2021/12/17 22:17:40;;;;;;;49.75;27.63;;;;;;;6.73;100.00;103939.22;4827920;29;20104;-89
2021/12/17 22:26:47;;;;;;;49.25;27.23;;;;;;;6.85;100.00;103961.09;4919454;29;20108;-88
2021/12/17 22:29:12;;;;;;;51.38;28.52;;;;;;;6.74;100.00;103937.38;4931578;29;20817;-88
2021/12/17 22:35:56;;;;;;;49.83;26.85;;;;;;;6.70;100.00;103939.53;4910672;29;20047;-87
2021/12/17 22:39:11;;;;;;;;;;;;;;;;;;;;;
2021/12/17 22:44:52;;;;;;;49.10;26.67;;;;;;;6.67;100.00;103937.16;4963507;23;20048;-87
2021/12/17 22:47:27;;;;;;;50.13;25.90;;;;;;;6.67;100.00;103937.16;4924392;23;20384;-87
2021/12/17 22:53:05;;;;;;;47.05;25.58;;;;;;;6.75;100.00;103947.06;4912132;29;20107;-88
2021/12/17 22:55:31;;;;;;;45.00;24.45;;;;;;;6.77;100.00;103963.72;4920319;29;20036;-88
2021/12/17 23:07:58;;;;;;;52.75;27.98;;;;;;;6.62;100.00;103932.31;4954378;28;20049;-88
2021/12/17 23:22:36;;;;;;;41.65;21.35;;;;;;;6.61;100.00;103935.13;5244192;23;20745;-87
